createdAt,value
2023-02-06T00:00:55.417Z,73.88
2023-02-06T00:03:24.399Z,74.32
2023-02-06T00:05:58.693Z,73.55
2023-02-06T00:08:29.925Z,73.89
2023-02-06T00:10:59.022Z,74.38
2023-02-06T00:13:28.259Z,73.29
2023-02-06T00:15:57.179Z,73.24
2023-02-06T00:18:26.875Z,73.27
2023-02-06T00:20:56.395Z,74.22
2023-02-06T00:23:25.506Z,73.79
2023-02-06T00:25:56.930Z,73.91
2023-02-06T00:29:05.432Z,73.91
2023-02-06T00:31:35.027Z,72.85
2023-02-06T00:34:04.635Z,72.78
2023-02-06T00:36:34.636Z,72.49
2023-02-06T00:39:03.710Z,72.07
2023-02-06T00:41:34.209Z,72.34
2023-02-06T00:44:03.368Z,72.23
2023-02-06T00:46:32.849Z,72.23
2023-02-06T00:49:02.209Z,73.80
2023-02-06T00:51:36.341Z,73.32
2023-02-06T00:54:05.581Z,72.95
2023-02-06T00:56:36.723Z,73.39
2023-02-06T00:59:06.112Z,74.27
2023-02-06T01:01:35.535Z,74.46
2023-02-06T01:04:04.375Z,74.08
2023-02-06T01:06:33.246Z,74.26
2023-02-06T01:09:02.306Z,73.84
2023-02-06T01:12:03.427Z,73.41
2023-02-06T01:14:32.666Z,73.13
2023-02-06T01:17:02.171Z,72.81
2023-02-06T01:19:31.538Z,73.11
2023-02-06T01:22:00.608Z,72.97
2023-02-06T01:24:29.869Z,72.77
2023-02-06T01:26:58.853Z,72.52
2023-02-06T01:29:29.636Z,72.45
2023-02-06T01:31:59.016Z,72.49
2023-02-06T01:34:28.673Z,74.11
2023-02-06T01:36:57.714Z,74.17
2023-02-06T01:39:27.038Z,73.41
2023-02-06T01:41:56.164Z,72.75
2023-02-06T01:44:27.338Z,72.10
2023-02-06T01:46:59.085Z,72.45
2023-02-06T01:49:36.848Z,73.43
2023-02-06T01:52:17.063Z,72.70
2023-02-06T01:54:55.017Z,72.71
2023-02-06T01:57:26.997Z,72.26
2023-02-06T02:00:03.623Z,72.35
2023-02-06T02:02:49.331Z,73.60
2023-02-06T02:05:20.753Z,73.01
2023-02-06T02:08:01.371Z,73.14
2023-02-06T02:10:33.617Z,74.27
2023-02-06T02:13:03.266Z,74.23
2023-02-06T02:15:51.623Z,73.23
2023-02-06T02:18:47.852Z,74.02
2023-02-06T02:22:18.733Z,73.75
2023-02-06T02:25:18.813Z,73.48
2023-02-06T02:28:23.776Z,73.29
2023-02-06T02:31:32.942Z,73.29
2023-02-06T02:34:58.488Z,73.31
2023-02-06T02:37:41.378Z,72.76
2023-02-06T02:40:24.467Z,73.92
2023-02-06T02:43:06.361Z,74.30
2023-02-06T02:45:44.926Z,73.70
2023-02-06T02:48:20.884Z,73.33
2023-02-06T02:50:52.761Z,73.17
2023-02-06T02:53:23.995Z,73.85
2023-02-06T02:55:54.356Z,74.47
2023-02-06T02:58:33.066Z,74.08
2023-02-06T03:01:10.408Z,73.83
2023-02-06T03:03:44.942Z,73.72
2023-02-06T03:07:04.200Z,73.31
2023-02-06T03:09:51.727Z,73.49
2023-02-06T03:12:29.998Z,73.72
2023-02-06T03:15:12.497Z,75.31
2023-02-06T03:17:50.888Z,75.67
2023-02-06T03:20:21.845Z,75.80
2023-02-06T03:22:55.143Z,74.80
2023-02-06T03:25:34.872Z,74.32
2023-02-06T03:28:12.830Z,75.07
2023-02-06T03:30:46.406Z,74.79
2023-02-06T03:33:20.331Z,74.20
2023-02-06T03:40:18.594Z,74.30
2023-02-06T03:42:57.466Z,75.27
2023-02-06T03:45:32.130Z,75.12
2023-02-06T03:48:04.854Z,75.09
2023-02-06T03:50:36.521Z,75.96
2023-02-06T03:53:06.880Z,75.71
2023-02-06T03:55:41.891Z,75.49
2023-02-06T03:58:16.516Z,75.38
2023-02-06T04:00:48.305Z,74.78
2023-02-06T04:03:20.131Z,74.92
2023-02-06T04:06:15.022Z,74.64
2023-02-06T04:09:58.567Z,76.01
2023-02-06T04:12:29.195Z,76.14
2023-02-06T04:14:58.041Z,75.61
2023-02-06T04:17:43.266Z,75.29
2023-02-06T04:20:16.706Z,75.03
2023-02-06T04:22:46.231Z,74.91
2023-02-06T04:25:15.740Z,75.49
2023-02-06T04:27:52.693Z,75.84
2023-02-06T04:30:22.379Z,75.13
2023-02-06T04:32:56.919Z,75.29
2023-02-06T04:35:26.463Z,75.59
2023-02-06T04:37:56.049Z,75.51
2023-02-06T04:40:25.346Z,75.69
2023-02-06T04:43:01.986Z,76.29
2023-02-06T04:45:31.507Z,76.03
2023-02-06T04:48:07.160Z,76.45
2023-02-06T04:50:47.969Z,77.29
2023-02-06T04:54:13.320Z,77.17
2023-02-06T04:57:05.534Z,76.79
2023-02-06T04:59:36.749Z,76.75
2023-02-06T05:02:06.360Z,76.68
2023-02-06T05:04:35.976Z,76.56
2023-02-06T05:07:05.662Z,77.29
2023-02-06T05:09:40.377Z,78.58
2023-02-06T05:12:18.013Z,78.82
2023-02-06T05:14:48.354Z,79.32
2023-02-06T05:21:48.791Z,79.29
2023-02-06T05:24:19.912Z,79.31
2023-02-06T05:26:49.315Z,78.75
2023-02-06T05:29:49.803Z,78.72
2023-02-06T05:32:54.279Z,78.98
2023-02-06T05:35:23.814Z,78.62
2023-02-06T05:37:53.201Z,78.57
2023-02-06T05:41:13.741Z,78.97
2023-02-06T05:43:43.318Z,79.08
2023-02-06T05:46:14.414Z,79.10
2023-02-06T05:48:47.159Z,78.61
2023-02-06T05:51:18.384Z,79.49
2023-02-06T05:53:56.531Z,79.45
2023-02-06T05:56:25.644Z,79.54
2023-02-06T05:58:54.814Z,79.35
2023-02-06T06:01:26.579Z,79.25
2023-02-06T06:04:32.839Z,79.91
2023-02-06T06:07:02.423Z,80.33
2023-02-06T06:09:31.361Z,80.25
2023-02-06T06:12:03.320Z,79.71
2023-02-06T06:14:32.180Z,79.74
2023-02-06T06:17:03.324Z,79.96
2023-02-06T06:19:32.299Z,80.52
2023-02-06T06:22:01.137Z,80.15
2023-02-06T06:24:30.045Z,80.48
2023-02-06T06:26:59.554Z,80.92
2023-02-06T06:29:28.688Z,80.80
2023-02-06T06:31:57.606Z,80.88
2023-02-06T06:34:27.966Z,80.58
2023-02-06T06:36:56.744Z,80.57
2023-02-06T06:39:25.752Z,80.33
2023-02-06T06:41:54.793Z,80.93
2023-02-06T06:44:23.929Z,81.28
2023-02-06T06:46:53.031Z,81.45
2023-02-06T06:49:49.841Z,81.43
2023-02-06T06:52:24.942Z,81.56
2023-02-06T06:54:54.945Z,81.84
2023-02-06T06:57:24.834Z,81.68
2023-02-06T06:59:54.146Z,81.76
2023-02-06T07:02:22.958Z,81.43
2023-02-06T07:04:53.133Z,81.68
2023-02-06T07:07:22.054Z,81.83
2023-02-06T07:09:50.820Z,82.63
2023-02-06T07:12:19.734Z,82.39
2023-02-06T07:14:48.855Z,82.20
2023-02-06T07:17:17.678Z,82.02
2023-02-06T07:19:48.301Z,82.28
2023-02-06T07:22:40.118Z,82.72
2023-02-06T07:25:09.637Z,82.08
2023-02-06T07:27:38.522Z,83.14
2023-02-06T07:30:08.725Z,82.83
2023-02-06T07:32:37.914Z,82.82
2023-02-06T07:35:08.303Z,82.76
2023-02-06T07:37:55.923Z,82.61
2023-02-06T07:40:27.654Z,82.67
2023-02-06T07:42:58.155Z,82.40
2023-02-06T07:45:35.236Z,82.50
2023-02-06T07:48:06.544Z,82.27
2023-02-06T07:50:36.202Z,82.39
2023-02-06T07:53:07.924Z,82.69
2023-02-06T07:55:39.066Z,82.74
2023-02-06T07:58:08.170Z,82.87
2023-02-06T08:00:36.996Z,82.91
2023-02-06T08:03:06.278Z,83.80
2023-02-06T08:05:38.932Z,83.26
2023-02-06T08:08:10.809Z,83.04
2023-02-06T08:10:40.379Z,83.37
2023-02-06T08:13:09.291Z,83.12
2023-02-06T08:15:38.282Z,83.14
2023-02-06T08:18:09.185Z,83.07
2023-02-06T08:20:38.033Z,83.25
2023-02-06T08:23:08.800Z,82.95
2023-02-06T08:25:37.937Z,83.08
2023-02-06T08:28:07.461Z,82.94
2023-02-06T08:30:37.111Z,83.30
2023-02-06T08:33:06.249Z,83.68
2023-02-06T08:35:35.751Z,84.11
2023-02-06T08:38:04.751Z,83.95
2023-02-06T08:40:35.006Z,85.17
2023-02-06T08:43:03.836Z,85.39
2023-02-06T08:45:32.590Z,85.09
2023-02-06T08:48:01.424Z,85.17
2023-02-06T08:50:30.258Z,85.82
2023-02-06T08:53:00.031Z,85.56
2023-02-06T08:55:28.863Z,86.11
2023-02-06T08:57:59.031Z,85.84
2023-02-06T09:00:28.168Z,85.70
2023-02-06T09:02:57.561Z,86.47
2023-02-06T09:05:26.519Z,86.15
2023-02-06T09:07:55.384Z,86.33
2023-02-06T09:10:27.904Z,87.17
2023-02-06T09:12:58.546Z,86.69
2023-02-06T09:15:27.509Z,86.59
2023-02-06T09:17:56.427Z,87.38
2023-02-06T09:20:26.670Z,88.86
2023-02-06T09:22:55.537Z,88.81
2023-02-06T09:25:24.309Z,88.84
2023-02-06T09:27:53.237Z,88.34
2023-02-06T09:30:23.742Z,87.81
2023-02-06T09:32:52.699Z,87.73
2023-02-06T09:35:21.432Z,88.06
2023-02-06T09:37:50.233Z,88.13
2023-02-06T09:40:27.056Z,87.90
2023-02-06T09:42:57.593Z,88.73
2023-02-06T09:45:31.289Z,88.59
2023-02-06T09:48:16.223Z,88.39
2023-02-06T09:50:58.127Z,88.80
2023-02-06T09:53:41.811Z,88.59
2023-02-06T09:56:22.882Z,88.24
2023-02-06T09:59:02.885Z,88.23
2023-02-06T10:01:43.208Z,88.16
2023-02-06T10:04:47.797Z,88.03
2023-02-06T10:07:38.814Z,87.94
2023-02-06T10:10:16.791Z,88.49
2023-02-06T10:12:55.517Z,88.55
2023-02-06T10:18:32.203Z,88.95
2023-02-06T10:21:06.625Z,88.69
2023-02-06T10:23:47.474Z,89.36
2023-02-06T10:26:19.080Z,89.09
2023-02-06T10:28:52.531Z,89.43
2023-02-06T10:31:55.899Z,90.14
2023-02-06T10:34:56.333Z,90.00
2023-02-06T10:37:50.239Z,90.31
2023-02-06T10:40:36.635Z,90.20
2023-02-06T10:43:21.091Z,90.11
2023-02-06T10:46:04.119Z,89.94
2023-02-06T10:48:42.420Z,89.51
2023-02-06T10:51:20.951Z,89.50
2023-02-06T10:53:54.986Z,89.07
2023-02-06T10:56:29.935Z,89.04
2023-02-06T10:59:03.282Z,89.37
2023-02-06T11:01:38.632Z,89.50
2023-02-06T11:04:16.883Z,89.35
2023-02-06T11:06:47.617Z,89.19
2023-02-06T11:09:17.217Z,89.53
2023-02-06T11:11:48.874Z,89.65
2023-02-06T11:14:28.469Z,88.69
2023-02-06T11:17:01.599Z,88.68
2023-02-06T11:19:40.516Z,88.63
2023-02-06T11:22:26.946Z,88.30
2023-02-06T11:25:06.192Z,88.56
2023-02-06T11:27:37.397Z,88.46
2023-02-06T11:30:26.349Z,88.44
2023-02-06T11:33:04.646Z,88.30
2023-02-06T11:35:39.373Z,88.36
2023-02-06T11:38:25.279Z,88.53
2023-02-06T11:41:04.849Z,88.06
2023-02-06T11:43:47.669Z,87.85
2023-02-06T11:46:40.537Z,87.05
2023-02-06T11:49:29.581Z,86.47
2023-02-06T11:52:06.190Z,85.55
2023-02-06T11:54:56.648Z,85.69
2023-02-06T11:57:47.297Z,85.04
2023-02-06T12:00:25.950Z,85.10
2023-02-06T12:03:03.757Z,84.67
2023-02-06T12:05:43.647Z,84.36
2023-02-06T12:09:49.098Z,83.84
2023-02-06T12:13:07.489Z,83.85
2023-02-06T12:19:51.062Z,83.03
2023-02-06T12:22:24.834Z,82.91
2023-02-06T12:24:56.773Z,82.81
2023-02-06T12:27:39.263Z,83.27
2023-02-06T12:30:38.304Z,82.87
2023-02-06T12:33:17.355Z,81.95
2023-02-06T12:36:17.548Z,82.50
2023-02-06T12:38:54.788Z,82.42
2023-02-06T12:41:59.580Z,80.62
2023-02-06T12:44:35.213Z,81.17
2023-02-06T12:47:24.361Z,81.15
2023-02-06T12:50:01.915Z,80.00
2023-02-06T12:52:41.706Z,79.98
2023-02-06T12:55:23.110Z,80.31
2023-02-06T12:57:57.841Z,80.22
2023-02-06T13:01:20.830Z,80.55
2023-02-06T13:03:59.355Z,80.89
2023-02-06T13:06:35.157Z,80.60
2023-02-06T13:09:09.328Z,80.85
2023-02-06T13:11:42.753Z,81.30
2023-02-06T13:14:22.794Z,81.62
2023-02-06T13:17:00.912Z,81.05
2023-02-06T13:19:54.843Z,81.29
2023-02-06T13:22:43.671Z,81.88
2023-02-06T13:26:10.651Z,81.13
2023-02-06T13:29:01.510Z,80.68
2023-02-06T13:32:28.867Z,80.75
2023-02-06T13:35:15.568Z,78.55
2023-02-06T13:37:48.511Z,78.18
2023-02-06T13:40:32.303Z,78.28
2023-02-06T13:43:10.508Z,76.81
2023-02-06T13:46:12.306Z,75.12
2023-02-06T13:49:30.041Z,73.83
2023-02-06T13:52:16.408Z,75.44
2023-02-06T13:55:06.014Z,75.62
2023-02-06T13:58:05.106Z,75.30
2023-02-06T14:00:44.397Z,74.85
2023-02-06T14:03:23.162Z,75.24
2023-02-06T14:06:04.048Z,75.54
2023-02-06T14:08:49.620Z,75.45
2023-02-06T14:12:31.773Z,73.42
2023-02-06T14:15:29.328Z,73.64
2023-02-06T14:18:41.785Z,73.55
2023-02-06T14:21:28.503Z,72.61
2023-02-06T14:24:51.040Z,73.01
2023-02-06T14:27:55.062Z,72.56
2023-02-06T14:30:44.221Z,72.70
2023-02-06T14:33:42.873Z,71.78
2023-02-06T14:36:44.714Z,71.86
2023-02-06T14:39:41.203Z,71.53
2023-02-06T14:42:39.720Z,71.56
2023-02-06T14:45:35.964Z,71.15
2023-02-06T14:48:07.933Z,72.73
2023-02-06T14:50:42.282Z,72.05
2023-02-06T14:53:21.207Z,71.36
2023-02-06T14:55:50.516Z,70.18
2023-02-06T14:58:26.525Z,70.58
2023-02-06T15:01:14.148Z,70.42
2023-02-06T15:03:43.398Z,70.58
2023-02-06T15:06:26.944Z,71.05
2023-02-06T15:08:56.861Z,71.75
2023-02-06T15:11:32.631Z,71.21
2023-02-06T15:14:05.310Z,72.97
2023-02-06T15:16:47.948Z,73.14
2023-02-06T15:19:21.411Z,73.78
2023-02-06T15:22:02.294Z,74.05
2023-02-06T15:25:51.850Z,73.88
2023-02-06T15:28:27.639Z,73.66
2023-02-06T15:31:01.833Z,74.30
2023-02-06T15:33:34.216Z,74.98
2023-02-06T15:36:05.390Z,74.63
2023-02-06T15:38:37.479Z,75.40
2023-02-06T15:41:09.770Z,75.64
2023-02-06T15:43:39.051Z,75.77
2023-02-06T15:46:09.457Z,75.77
2023-02-06T15:48:43.833Z,75.78
2023-02-06T15:51:24.329Z,76.25
2023-02-06T15:54:09.800Z,75.55
2023-02-06T15:56:44.708Z,75.23
2023-02-06T15:59:24.214Z,75.33
2023-02-06T16:01:55.572Z,75.46
2023-02-06T16:04:30.515Z,75.66
2023-02-06T16:07:08.412Z,75.98
2023-02-06T16:09:51.128Z,76.65
2023-02-06T16:12:21.413Z,76.98
2023-02-06T16:14:58.378Z,77.73
2023-02-06T16:17:34.792Z,77.02
2023-02-06T16:20:08.464Z,75.92
2023-02-06T16:22:40.321Z,75.58
2023-02-06T16:25:25.862Z,75.38
2023-02-06T16:27:58.275Z,75.47
2023-02-06T16:30:31.320Z,76.10
2023-02-06T16:33:10.673Z,77.48
2023-02-06T16:35:40.475Z,77.03
2023-02-06T16:38:12.663Z,78.13
2023-02-06T16:40:43.214Z,78.64
2023-02-06T16:43:13.506Z,78.86
2023-02-06T16:45:42.635Z,78.75
2023-02-06T16:48:15.148Z,79.37
2023-02-06T16:50:45.319Z,78.64
2023-02-06T16:53:21.496Z,77.72
2023-02-06T16:55:56.173Z,77.93
2023-02-06T16:58:30.313Z,78.32
2023-02-06T17:00:59.812Z,78.79
2023-02-06T17:03:32.572Z,78.86
2023-02-06T17:06:02.015Z,77.81
2023-02-06T17:08:39.535Z,76.46
2023-02-06T17:11:11.406Z,77.59
2023-02-06T17:13:41.632Z,77.32
2023-02-06T17:16:17.634Z,76.07
2023-02-06T17:18:47.558Z,77.68
2023-02-06T17:21:19.394Z,77.70
2023-02-06T17:23:49.265Z,77.92
2023-02-06T17:26:22.609Z,77.58
2023-02-06T17:28:53.069Z,76.78
2023-02-06T17:31:23.448Z,75.42
2023-02-06T17:33:52.373Z,75.18
2023-02-06T17:36:29.552Z,75.53
2023-02-06T17:38:59.246Z,76.95
2023-02-06T17:41:31.383Z,77.37
2023-02-06T17:44:01.205Z,77.08
2023-02-06T17:46:31.269Z,76.18
2023-02-06T17:49:14.679Z,76.74
2023-02-06T17:51:48.837Z,76.41
2023-02-06T17:54:22.239Z,75.35
2023-02-06T17:57:20.582Z,73.97
2023-02-06T17:59:55.569Z,74.84
2023-02-06T18:02:25.851Z,75.16
2023-02-06T18:04:55.654Z,73.98
2023-02-06T18:07:25.539Z,75.16
2023-02-06T18:09:54.750Z,75.29
2023-02-06T18:12:25.083Z,76.25
2023-02-06T18:14:54.003Z,76.40
2023-02-06T18:17:38.864Z,76.22
2023-02-06T18:20:20.695Z,76.68
2023-02-06T18:22:55.685Z,76.44
2023-02-06T18:25:26.009Z,75.05
2023-02-06T18:28:07.750Z,73.87
2023-02-06T18:30:37.642Z,74.36
2023-02-06T18:33:06.877Z,73.83
2023-02-06T18:35:39.585Z,74.24
2023-02-06T18:38:10.186Z,75.82
2023-02-06T18:40:39.960Z,75.11
2023-02-06T18:43:09.475Z,74.60
2023-02-06T18:45:40.571Z,73.86
2023-02-06T18:48:12.785Z,72.94
2023-02-06T18:50:47.726Z,74.35
2023-02-06T18:53:18.526Z,74.24
2023-02-06T18:56:00.805Z,73.41
2023-02-06T18:58:31.438Z,72.70
2023-02-06T19:01:00.576Z,73.47
2023-02-06T19:03:29.586Z,74.80
2023-02-06T19:05:58.501Z,75.18
2023-02-06T19:08:28.753Z,74.82
2023-02-06T19:10:58.928Z,73.59
2023-02-06T19:13:28.008Z,72.54
2023-02-06T19:16:07.479Z,71.40
2023-02-06T19:18:41.609Z,72.08
2023-02-06T19:21:15.794Z,72.51
2023-02-06T19:23:46.211Z,72.83
2023-02-06T19:26:17.878Z,73.78
2023-02-06T19:28:47.036Z,73.28
2023-02-06T19:31:23.761Z,73.67
2023-02-06T19:33:55.362Z,72.59
2023-02-06T19:36:26.070Z,71.54
2023-02-06T19:38:59.732Z,72.71
2023-02-06T19:41:34.172Z,72.63
2023-02-06T19:44:10.995Z,72.82
2023-02-06T19:46:41.691Z,73.86
2023-02-06T19:49:12.661Z,73.80
2023-02-06T19:51:44.846Z,73.62
2023-02-06T19:54:14.338Z,73.05
2023-02-06T19:56:47.194Z,72.00
2023-02-06T19:59:22.984Z,71.21
2023-02-06T20:01:58.135Z,70.62
2023-02-06T20:04:32.387Z,70.79
2023-02-06T20:07:02.911Z,72.48
2023-02-06T20:09:32.665Z,72.16
2023-02-06T20:12:02.401Z,71.98
2023-02-06T20:14:32.591Z,71.13
2023-02-06T20:17:10.883Z,70.44
2023-02-06T20:19:40.745Z,70.16
2023-02-06T20:22:10.828Z,69.52
2023-02-06T20:24:41.461Z,69.62
2023-02-06T20:27:14.171Z,70.22
2023-02-06T20:29:46.063Z,72.12
2023-02-06T20:32:19.687Z,72.63
2023-02-06T20:34:49.282Z,72.19
2023-02-06T20:37:19.288Z,70.94
2023-02-06T20:39:49.408Z,70.50
2023-02-06T20:42:19.634Z,70.27
2023-02-06T20:44:49.553Z,70.46
2023-02-06T20:47:20.033Z,71.67
2023-02-06T20:49:53.010Z,70.98
2023-02-06T20:52:22.436Z,70.16
2023-02-06T20:54:51.245Z,69.44
2023-02-06T20:57:22.433Z,70.95
2023-02-06T20:59:51.139Z,69.90
2023-02-06T21:02:28.378Z,69.39
2023-02-06T21:04:57.404Z,69.67
2023-02-06T21:07:26.768Z,71.47
2023-02-06T21:09:56.521Z,71.27
2023-02-06T21:12:25.271Z,72.41
2023-02-06T21:14:53.994Z,71.90
2023-02-06T21:17:24.659Z,71.33
2023-02-06T21:19:59.480Z,71.18
2023-02-06T21:22:28.200Z,70.87
2023-02-06T21:24:56.932Z,72.00
2023-02-06T21:27:25.649Z,72.33
2023-02-06T21:29:54.476Z,70.91
2023-02-06T21:32:24.619Z,72.09
2023-02-06T21:34:53.355Z,72.78
2023-02-06T21:37:22.646Z,72.58
2023-02-06T21:39:51.503Z,72.36
2023-02-06T21:42:26.238Z,72.84
2023-02-06T21:44:55.016Z,73.19
2023-02-06T21:47:25.081Z,72.11
2023-02-06T21:49:53.775Z,71.82
2023-02-06T21:52:22.601Z,71.28
2023-02-06T21:54:51.377Z,72.58
2023-02-06T21:57:20.154Z,73.46
2023-02-06T21:59:48.821Z,73.62
2023-02-06T22:02:17.526Z,73.46
2023-02-06T22:04:47.805Z,73.24
2023-02-06T22:07:16.862Z,73.87
2023-02-06T22:09:45.783Z,73.95
2023-02-06T22:12:14.490Z,73.73
2023-02-06T22:14:43.203Z,73.83
2023-02-06T22:17:12.108Z,73.65
2023-02-06T22:19:40.937Z,72.08
2023-02-06T22:22:12.609Z,70.97
2023-02-06T22:24:41.540Z,70.80
2023-02-06T22:27:10.239Z,71.91
2023-02-06T22:29:39.113Z,72.30
2023-02-06T22:32:07.787Z,72.40
2023-02-06T22:34:36.537Z,71.55
2023-02-06T22:37:05.337Z,70.50
2023-02-06T22:39:35.951Z,70.40
2023-02-06T22:42:04.979Z,71.33
2023-02-06T22:44:33.699Z,71.55
2023-02-06T22:47:02.457Z,71.66
2023-02-06T22:49:31.328Z,71.68
2023-02-06T22:52:00.047Z,71.97
2023-02-06T22:54:28.867Z,72.93
2023-02-06T22:56:58.934Z,72.76
2023-02-06T22:59:27.919Z,72.12
2023-02-06T23:01:59.944Z,71.60
2023-02-06T23:04:34.677Z,70.68
2023-02-06T23:07:03.570Z,69.95
2023-02-06T23:09:35.705Z,69.35
2023-02-06T23:12:09.670Z,68.97
2023-02-06T23:14:38.637Z,68.58
2023-02-06T23:17:07.418Z,69.34
2023-02-06T23:19:36.202Z,69.96
2023-02-06T23:22:08.014Z,69.31
2023-02-06T23:24:36.800Z,70.53
2023-02-06T23:27:06.938Z,70.69
2023-02-06T23:29:35.685Z,70.25
2023-02-06T23:32:04.444Z,69.98
2023-02-06T23:34:33.161Z,70.33
2023-02-06T23:37:01.860Z,70.08
2023-02-06T23:39:31.261Z,70.57
2023-02-06T23:42:00.114Z,69.68
2023-02-06T23:44:30.212Z,69.37
2023-02-06T23:46:59.075Z,69.24
2023-02-06T23:49:27.791Z,69.06
2023-02-06T23:51:56.463Z,70.21
2023-02-06T23:54:25.145Z,70.54
2023-02-06T23:56:55.093Z,69.70
2023-02-06T23:59:23.806Z,69.47
